BAW789 LSGG-EGLL
Flight info
| Callsign | BAW789 |
|---|---|
| Flight time | N/A |
| Altitude | 40000 |
| Route | SIROD Z124 IBABA DCT TUTAX DCT OBURO DCT OKRIX DCT CLM DCT KOPOR DCT ABNUR DCT DIMAL DCT ALESO |
| Aircraft | B77L/H-SDE1E2E3FGHIJ2J3J4J5M1RWXY/LB1D1 |
Departure
| Time | N/A |
|---|---|
| Airport | Geneva International Airport (LSGG) |
Arrival
| Time | 2026-04-30 19:12 |
|---|---|
| Airport | London Heathrow Airport (EGLL) |
| Time | Latitude | Longitude | Altitude | Speed | Heading |
|---|---|---|---|---|---|
| 2026-04-30 18:17 | 47.41933 | 4.58174 | 40151 ft | 469 kts | 318° |
| 2026-04-30 18:18 | 47.44330 | 4.54931 | 40141 ft | 470 kts | 317° |
| 2026-04-30 18:18 | 47.49141 | 4.48407 | 40150 ft | 470 kts | 317° |
| 2026-04-30 18:19 | 47.53971 | 4.41838 | 40146 ft | 472 kts | 317° |
| 2026-04-30 18:19 | 47.58775 | 4.35290 | 40147 ft | 472 kts | 317° |
| 2026-04-30 18:20 | 47.63596 | 4.28652 | 40143 ft | 473 kts | 315° |
| 2026-04-30 18:20 | 47.67772 | 4.21132 | 40141 ft | 473 kts | 304° |
| 2026-04-30 18:21 | 47.71421 | 4.12991 | 40134 ft | 473 kts | 303° |
| 2026-04-30 18:21 | 47.75062 | 4.04821 | 40139 ft | 473 kts | 304° |
| 2026-04-30 18:22 | 47.78729 | 3.96678 | 40137 ft | 474 kts | 304° |
| 2026-04-30 18:22 | 47.84209 | 3.84519 | 40135 ft | 474 kts | 304° |
| 2026-04-30 18:23 | 47.87880 | 3.76339 | 40133 ft | 474 kts | 304° |
| 2026-04-30 18:23 | 47.91538 | 3.68163 | 40136 ft | 474 kts | 303° |
| 2026-04-30 18:24 | 47.95363 | 3.60159 | 40137 ft | 473 kts | 314° |
| 2026-04-30 18:24 | 47.97766 | 3.56917 | 40144 ft | 472 kts | 323° |
| 2026-04-30 18:25 | 48.03535 | 3.52215 | 40138 ft | 471 kts | 338° |
| 2026-04-30 18:25 | 48.12632 | 3.46766 | 40144 ft | 472 kts | 338° |
| 2026-04-30 18:26 | 48.21759 | 3.41158 | 40137 ft | 473 kts | 338° |
| 2026-04-30 18:27 | 48.30903 | 3.35427 | 40143 ft | 475 kts | 338° |
| 2026-04-30 18:28 | 48.40066 | 3.29662 | 40152 ft | 476 kts | 338° |
| 2026-04-30 18:28 | 48.49233 | 3.23877 | 40148 ft | 476 kts | 338° |
| 2026-04-30 18:29 | 48.61394 | 3.16166 | 40156 ft | 475 kts | 338° |
| 2026-04-30 18:30 | 48.73563 | 3.08409 | 40159 ft | 473 kts | 338° |
| 2026-04-30 18:31 | 48.82665 | 3.02579 | 40163 ft | 474 kts | 338° |
| 2026-04-30 18:32 | 48.91381 | 2.95555 | 40186 ft | 473 kts | 330° |
| 2026-04-30 18:33 | 48.99924 | 2.87898 | 40157 ft | 476 kts | 330° |
| 2026-04-30 18:33 | 49.08491 | 2.80303 | 40164 ft | 478 kts | 331° |
| 2026-04-30 18:34 | 49.17157 | 2.72691 | 40166 ft | 479 kts | 331° |
| 2026-04-30 18:35 | 49.22927 | 2.67575 | 40177 ft | 479 kts | 331° |
| 2026-04-30 18:35 | 49.28640 | 2.62487 | 40166 ft | 479 kts | 330° |
| 2026-04-30 18:36 | 49.37274 | 2.54782 | 40165 ft | 479 kts | 330° |
| 2026-04-30 18:37 | 49.45925 | 2.47027 | 40168 ft | 479 kts | 330° |
| 2026-04-30 18:37 | 49.51691 | 2.41842 | 40160 ft | 480 kts | 331° |
| 2026-04-30 18:38 | 49.57486 | 2.36869 | 40167 ft | 479 kts | 332° |
| 2026-04-30 18:38 | 49.63347 | 2.31977 | 40160 ft | 479 kts | 333° |
| 2026-04-30 18:39 | 49.69196 | 2.27055 | 40164 ft | 479 kts | 332° |
| 2026-04-30 18:39 | 49.75037 | 2.22092 | 40169 ft | 479 kts | 332° |
| 2026-04-30 18:40 | 49.80882 | 2.17106 | 40177 ft | 480 kts | 331° |
| 2026-04-30 18:40 | 49.83814 | 2.14600 | 39992 ft | 483 kts | 332° |
| 2026-04-30 18:40 | 49.86755 | 2.12083 | 39358 ft | 489 kts | 332° |
| 2026-04-30 18:40 | 49.89713 | 2.09547 | 38939 ft | 483 kts | 332° |
| 2026-04-30 18:41 | 49.92642 | 2.07031 | 38384 ft | 478 kts | 332° |
| 2026-04-30 18:41 | 49.95542 | 2.04539 | 37901 ft | 472 kts | 332° |
| 2026-04-30 18:41 | 49.98405 | 2.02074 | 37470 ft | 466 kts | 332° |
| 2026-04-30 18:41 | 50.01226 | 1.99643 | 37030 ft | 461 kts | 332° |
| 2026-04-30 18:42 | 50.03988 | 1.97260 | 36610 ft | 456 kts | 332° |
| 2026-04-30 18:42 | 50.09483 | 1.92509 | 35748 ft | 447 kts | 332° |
| 2026-04-30 18:42 | 50.12179 | 1.90174 | 35320 ft | 444 kts | 332° |
| 2026-04-30 18:45 | 50.33810 | 1.60439 | 31193 ft | 416 kts | 315° |
| 2026-04-30 18:45 | 50.35880 | 1.57267 | 30779 ft | 414 kts | 315° |
| 2026-04-30 18:45 | 50.37924 | 1.54131 | 30397 ft | 411 kts | 315° |
| 2026-04-30 18:46 | 50.39968 | 1.50992 | 29950 ft | 409 kts | 315° |
| 2026-04-30 18:46 | 50.41987 | 1.47887 | 29508 ft | 406 kts | 315° |
| 2026-04-30 18:46 | 50.43992 | 1.44797 | 29123 ft | 402 kts | 315° |
| 2026-04-30 18:46 | 50.45981 | 1.41732 | 28703 ft | 399 kts | 315° |
| 2026-04-30 18:47 | 50.47955 | 1.38684 | 28316 ft | 396 kts | 315° |
| 2026-04-30 18:47 | 50.49909 | 1.35650 | 27913 ft | 393 kts | 314° |
| 2026-04-30 18:47 | 50.51781 | 1.32521 | 27517 ft | 391 kts | 312° |
| 2026-04-30 18:47 | 50.53596 | 1.29373 | 27132 ft | 388 kts | 311° |
| 2026-04-30 18:48 | 50.55420 | 1.26225 | 26752 ft | 388 kts | 312° |
| 2026-04-30 18:48 | 50.57232 | 1.23127 | 26384 ft | 393 kts | 312° |
| 2026-04-30 18:48 | 50.59137 | 1.19958 | 26002 ft | 401 kts | 314° |
| 2026-04-30 18:48 | 50.61121 | 1.16818 | 25595 ft | 404 kts | 315° |
| 2026-04-30 18:49 | 50.63111 | 1.13715 | 25192 ft | 402 kts | 315° |
| 2026-04-30 18:49 | 50.65097 | 1.10619 | 24795 ft | 400 kts | 315° |
| 2026-04-30 18:49 | 50.67063 | 1.07536 | 24424 ft | 398 kts | 315° |
| 2026-04-30 18:49 | 50.68990 | 1.04497 | 24039 ft | 396 kts | 315° |
| 2026-04-30 18:50 | 50.70932 | 1.01422 | 23637 ft | 394 kts | 315° |
| 2026-04-30 18:50 | 50.72861 | 0.98359 | 23195 ft | 392 kts | 314° |
| 2026-04-30 18:50 | 50.74775 | 0.95312 | 22783 ft | 389 kts | 314° |
| 2026-04-30 18:50 | 50.76671 | 0.92291 | 22383 ft | 386 kts | 314° |
| 2026-04-30 18:51 | 50.78562 | 0.89274 | 22001 ft | 383 kts | 314° |
| 2026-04-30 18:51 | 50.80425 | 0.86298 | 21604 ft | 380 kts | 314° |
| 2026-04-30 18:51 | 50.82280 | 0.83332 | 21230 ft | 378 kts | 314° |
| 2026-04-30 18:51 | 50.84122 | 0.80385 | 20861 ft | 375 kts | 314° |
| 2026-04-30 18:52 | 50.85945 | 0.77462 | 20492 ft | 372 kts | 314° |
| 2026-04-30 18:52 | 50.87755 | 0.74558 | 20102 ft | 369 kts | 314° |
| 2026-04-30 18:52 | 50.89533 | 0.71703 | 19732 ft | 366 kts | 314° |
| 2026-04-30 18:52 | 50.91315 | 0.68838 | 19363 ft | 364 kts | 313° |
| 2026-04-30 18:53 | 50.93087 | 0.65987 | 18987 ft | 361 kts | 313° |
| 2026-04-30 18:53 | 50.94842 | 0.63159 | 18621 ft | 359 kts | 313° |
| 2026-04-30 18:53 | 50.96581 | 0.60353 | 18218 ft | 357 kts | 313° |
| 2026-04-30 18:53 | 50.98326 | 0.57534 | 17655 ft | 359 kts | 313° |
| 2026-04-30 18:54 | 51.00078 | 0.54700 | 17111 ft | 360 kts | 313° |
| 2026-04-30 18:54 | 51.01835 | 0.51855 | 16570 ft | 361 kts | 314° |
| 2026-04-30 18:54 | 51.03605 | 0.48989 | 16042 ft | 362 kts | 314° |
| 2026-04-30 18:54 | 51.05366 | 0.46132 | 15508 ft | 363 kts | 313° |
| 2026-04-30 18:55 | 51.07142 | 0.43254 | 14969 ft | 364 kts | 314° |
| 2026-04-30 18:55 | 51.10807 | 0.37651 | 13879 ft | 366 kts | 316° |
| 2026-04-30 18:55 | 51.12636 | 0.34892 | 13273 ft | 367 kts | 316° |
| 2026-04-30 18:56 | 51.16315 | 0.29294 | 12172 ft | 365 kts | 315° |
| 2026-04-30 18:56 | 51.18139 | 0.26501 | 11629 ft | 363 kts | 315° |
| 2026-04-30 18:56 | 51.19958 | 0.23711 | 11110 ft | 361 kts | 315° |
| 2026-04-30 18:57 | 51.23566 | 0.18169 | 10113 ft | 357 kts | 315° |
| 2026-04-30 18:57 | 51.25344 | 0.15435 | 9680 ft | 351 kts | 315° |
| 2026-04-30 18:57 | 51.27065 | 0.12785 | 9571 ft | 335 kts | 315° |
| 2026-04-30 18:58 | 51.30283 | 0.07823 | 9297 ft | 309 kts | 315° |
| 2026-04-30 18:58 | 51.31790 | 0.05495 | 9036 ft | 302 kts | 315° |
| 2026-04-30 18:58 | 51.33140 | 0.03025 | 8549 ft | 294 kts | 296° |
| 2026-04-30 18:59 | 51.34211 | -0.03184 | 7472 ft | 287 kts | 274° |
| 2026-04-30 19:00 | 51.34706 | -0.12753 | 7185 ft | 284 kts | 271° |
| 2026-04-30 19:00 | 51.34854 | -0.15898 | 7170 ft | 286 kts | 271° |
| 2026-04-30 19:00 | 51.35152 | -0.22259 | 7191 ft | 287 kts | 271° |
| 2026-04-30 19:01 | 51.35444 | -0.28595 | 7196 ft | 287 kts | 271° |
| 2026-04-30 19:01 | 51.35584 | -0.31754 | 7194 ft | 287 kts | 271° |
| 2026-04-30 19:02 | 51.35864 | -0.38138 | 7182 ft | 286 kts | 271° |
| 2026-04-30 19:02 | 51.36144 | -0.44500 | 7178 ft | 286 kts | 271° |
| 2026-04-30 19:03 | 51.36420 | -0.50740 | 7188 ft | 285 kts | 271° |
| 2026-04-30 19:03 | 51.36696 | -0.56977 | 7184 ft | 285 kts | 271° |
| 2026-04-30 19:04 | 51.36970 | -0.63298 | 7038 ft | 284 kts | 271° |
| 2026-04-30 19:04 | 51.37238 | -0.69398 | 6790 ft | 261 kts | 271° |
| 2026-04-30 19:05 | 51.37493 | -0.74993 | 6330 ft | 247 kts | 271° |
| 2026-04-30 19:05 | 51.37772 | -0.80470 | 5581 ft | 242 kts | 275° |
| 2026-04-30 19:06 | 51.39741 | -0.84716 | 4705 ft | 253 kts | 339° |
| 2026-04-30 19:06 | 51.41434 | -0.85161 | 4711 ft | 245 kts | 0° |
| 2026-04-30 19:06 | 51.44815 | -0.84153 | 4670 ft | 252 kts | 39° |
| 2026-04-30 19:07 | 51.47126 | -0.80187 | 4387 ft | 235 kts | 73° |
| 2026-04-30 19:07 | 51.47440 | -0.77718 | 4292 ft | 224 kts | 89° |
| 2026-04-30 19:08 | 51.47581 | -0.72647 | 3653 ft | 228 kts | 94° |
| 2026-04-30 19:08 | 51.47609 | -0.67660 | 2861 ft | 212 kts | 94° |
| 2026-04-30 19:08 | 51.47625 | -0.65467 | 2398 ft | 188 kts | 94° |
| 2026-04-30 19:09 | 51.47644 | -0.61740 | 1726 ft | 148 kts | 93° |
| 2026-04-30 19:09 | 51.47660 | -0.60185 | 1426 ft | 127 kts | 91° |
| 2026-04-30 19:09 | 51.47671 | -0.58843 | 1265 ft | 123 kts | 92° |
| 2026-04-30 19:10 | 51.47690 | -0.56009 | 1005 ft | 127 kts | 90° |
| 2026-04-30 19:10 | 51.47736 | -0.53173 | 686 ft | 129 kts | 89° |
| 2026-04-30 19:11 | 51.47744 | -0.51711 | 561 ft | 134 kts | 89° |
| 2026-04-30 19:11 | 51.47757 | -0.48816 | 162 ft | 127 kts | 90° |
| 2026-04-30 19:11 | 51.47759 | -0.47539 | 95 ft | 113 kts | 89° |
| 2026-04-30 19:12 | 51.47759 | -0.46540 | 100 ft | 66 kts | 90° |
| 2026-04-30 19:12 | 51.47757 | -0.45957 | 95 ft | 20 kts | 89° |
| 2026-04-30 19:12 | 51.47759 | -0.45728 | 93 ft | 17 kts | 89° |
| 2026-04-30 19:13 | 51.47659 | -0.45465 | 92 ft | 0 kts | 182° |
| 2026-04-30 19:13 | 51.47654 | -0.45465 | 92 ft | 5 kts | 182° |
| 2026-04-30 19:13 | 51.47605 | -0.45468 | 93 ft | 15 kts | 182° |
| 2026-04-30 19:14 | 51.47514 | -0.45521 | 98 ft | 16 kts | 251° |
| 2026-04-30 19:14 | 51.47515 | -0.45774 | 95 ft | 28 kts | 276° |
| 2026-04-30 19:14 | 51.47515 | -0.45975 | 95 ft | 16 kts | 268° |
| 2026-04-30 19:14 | 51.47514 | -0.46126 | 96 ft | 10 kts | 268° |
| 2026-04-30 19:15 | 51.47514 | -0.46213 | 97 ft | 2 kts | 270° |
| 2026-04-30 19:15 | 51.47479 | -0.46291 | 97 ft | 6 kts | 202° |
| 2026-04-30 19:15 | 51.47432 | -0.46317 | 96 ft | 8 kts | 198° |
| 2026-04-30 19:16 | 51.47428 | -0.46319 | 96 ft | 0 kts | 198° |